Terminal Aerodrome Forecast
Issued by NWS King Salmon, AK

Home | Current Version | Previous Version | Text Only | Print | Product List | Glossary On
Versions: 1 2 3 4 5 6 7 8 9 10 11 12 13 14 15 16
000
FTAK31 PANC 231733
TAFAKN
TAF
PAKN 231733Z 2318/2418 17005KT P6SM VCSH SCT025 BKN050
      TEMPO 2318/2322 5SM BR BKN025
     FM232200 16015G23KT P6SM VCSH BKN035 BKN050
     FM240500 15018G27KT 6SM -RA BKN020 OVC035
     FM240900 14022G35KT 5SM -RA BR SCT007 OVC015=

USA.gov is the U.S. government's official web portal to all federal, state and local government web resources and services.